createdAt,value
2023-04-02T00:01:36.711Z,93.60
2023-04-02T00:04:26.404Z,93.50
2023-04-02T00:06:56.896Z,93.60
2023-04-02T00:09:30.735Z,93.60
2023-04-02T00:12:00.405Z,94.00
2023-04-02T00:14:30.864Z,93.60
2023-04-02T00:17:00.810Z,93.60
2023-04-02T00:19:36.205Z,93.50
2023-04-02T00:22:06.473Z,93.50
2023-04-02T00:24:34.982Z,93.50
2023-04-02T00:27:03.361Z,93.40
2023-04-02T00:29:31.576Z,93.40
2023-04-02T00:32:00.943Z,93.30
2023-04-02T00:34:37.489Z,93.40
2023-04-02T00:37:05.863Z,93.40
2023-04-02T00:39:41.497Z,93.40
2023-04-02T00:42:13.448Z,93.40
2023-04-02T00:44:44.261Z,93.30
2023-04-02T00:47:18.759Z,93.30
2023-04-02T00:49:50.060Z,93.30
2023-04-02T00:52:22.252Z,93.30
2023-04-02T00:54:53.791Z,93.30
2023-04-02T00:57:25.499Z,93.20
2023-04-02T00:59:57.451Z,92.90
2023-04-02T01:02:29.687Z,93.10
2023-04-02T01:05:00.468Z,93.30
2023-04-02T01:07:50.847Z,93.20
2023-04-02T01:10:34.425Z,93.20
2023-04-02T01:13:13.173Z,93.10
2023-04-02T01:15:43.654Z,93.10
2023-04-02T01:18:34.620Z,93.10
2023-04-02T01:21:47.144Z,93.20
2023-04-02T01:24:15.844Z,93.30
2023-04-02T01:26:51.175Z,93.10
2023-04-02T01:29:23.064Z,93.20
2023-04-02T01:31:52.191Z,93.10
2023-04-02T01:34:25.071Z,93.00
2023-04-02T01:37:04.516Z,93.00
2023-04-02T01:39:43.173Z,93.00
2023-04-02T01:42:17.616Z,93.00
2023-04-02T01:44:49.665Z,92.90
2023-04-02T01:47:20.357Z,93.20
2023-04-02T01:49:48.758Z,93.10
2023-04-02T01:52:21.041Z,92.60
2023-04-02T01:54:49.172Z,92.90
2023-04-02T01:57:17.591Z,92.70
2023-04-02T01:59:47.223Z,92.30
2023-04-02T02:02:15.934Z,92.60
2023-04-02T02:04:44.989Z,92.70
2023-04-02T02:07:18.587Z,92.60
2023-04-02T02:09:47.716Z,92.70
2023-04-02T02:12:16.793Z,92.80
2023-04-02T02:14:50.089Z,92.80
2023-04-02T02:17:27.956Z,92.90
2023-04-02T02:19:58.447Z,92.70
2023-04-02T02:22:31.021Z,92.80
2023-04-02T02:25:01.176Z,92.70
2023-04-02T02:27:47.551Z,92.80
2023-04-02T02:30:21.016Z,92.80
2023-04-02T02:32:54.901Z,92.80
2023-04-02T02:35:26.633Z,92.80
2023-04-02T02:38:00.864Z,92.90
2023-04-02T02:40:36.240Z,93.10
2023-04-02T02:43:07.252Z,92.90
2023-04-02T02:45:39.201Z,93.10
2023-04-02T02:48:13.165Z,93.20
2023-04-02T02:50:42.386Z,92.90
2023-04-02T02:53:18.826Z,92.80
2023-04-02T02:55:48.395Z,92.80
2023-04-02T02:58:19.337Z,92.90
2023-04-02T03:00:50.160Z,92.90
2023-04-02T03:03:21.933Z,92.90
2023-04-02T03:05:53.367Z,92.80
2023-04-02T03:08:26.512Z,92.90
2023-04-02T03:11:01.527Z,92.90
2023-04-02T03:13:35.570Z,92.90
2023-04-02T03:16:10.428Z,92.80
2023-04-02T03:18:46.479Z,92.80
2023-04-02T03:21:21.830Z,92.80
2023-04-02T03:23:55.068Z,92.70
2023-04-02T03:26:28.001Z,92.20
2023-04-02T03:29:00.783Z,92.70
2023-04-02T03:31:35.491Z,92.60
2023-04-02T03:34:09.601Z,92.50
2023-04-02T03:36:46.579Z,92.60
2023-04-02T03:39:21.310Z,92.50
2023-04-02T03:41:53.964Z,92.60
2023-04-02T03:44:28.381Z,92.40
2023-04-02T03:47:01.911Z,92.50
2023-04-02T03:49:36.130Z,92.60
2023-04-02T03:52:07.413Z,92.50
2023-04-02T03:54:35.633Z,92.60
2023-04-02T03:57:03.908Z,92.40
2023-04-02T03:59:40.890Z,92.60
2023-04-02T04:02:19.914Z,92.30
2023-04-02T04:04:49.430Z,92.30
2023-04-02T04:07:28.661Z,92.40
2023-04-02T04:09:57.200Z,92.30
2023-04-02T04:12:31.025Z,92.30
2023-04-02T04:15:03.643Z,92.20
2023-04-02T04:17:38.488Z,92.10
2023-04-02T04:20:21.840Z,92.20
2023-04-02T04:22:55.632Z,92.10
2023-04-02T04:25:29.611Z,92.10
2023-04-02T04:28:07.661Z,91.90
2023-04-02T04:30:45.128Z,91.90
2023-04-02T04:33:22.435Z,91.80
2023-04-02T04:35:54.553Z,91.80
2023-04-02T04:38:32.797Z,91.80
2023-04-02T04:41:05.674Z,91.60
2023-04-02T04:43:45.243Z,91.40
2023-04-02T04:46:19.150Z,91.20
2023-04-02T04:48:55.358Z,91.10
2023-04-02T04:51:26.398Z,91.00
2023-04-02T04:53:56.139Z,91.10
2023-04-02T04:56:29.538Z,90.90
2023-04-02T04:59:01.874Z,90.80
2023-04-02T05:01:38.081Z,90.50
2023-04-02T05:04:14.670Z,90.40
2023-04-02T05:06:45.776Z,90.50
2023-04-02T05:09:20.939Z,90.40
2023-04-02T05:11:53.794Z,90.40
2023-04-02T05:14:30.894Z,90.40
2023-04-02T05:17:04.713Z,90.30
2023-04-02T05:19:40.010Z,90.20
2023-04-02T05:22:21.094Z,90.30
2023-04-02T05:24:56.906Z,90.10
2023-04-02T05:27:33.664Z,90.40
2023-04-02T05:30:10.273Z,90.00
2023-04-02T05:32:43.202Z,89.60
2023-04-02T05:35:16.994Z,89.60
2023-04-02T05:37:46.118Z,89.40
2023-04-02T05:40:20.532Z,89.60
2023-04-02T05:42:52.957Z,88.90
2023-04-02T05:45:28.032Z,88.60
2023-04-02T05:48:00.080Z,88.50
2023-04-02T05:50:31.640Z,88.40
2023-04-02T05:53:05.504Z,88.00
2023-04-02T05:55:43.180Z,87.90
2023-04-02T05:58:35.265Z,88.20
2023-04-02T06:01:22.857Z,88.10
2023-04-02T06:04:00.389Z,88.30
2023-04-02T06:06:46.321Z,88.50
2023-04-02T06:09:19.218Z,88.10
2023-04-02T06:11:49.517Z,88.20
2023-04-02T06:14:18.532Z,88.40
2023-04-02T06:16:47.451Z,88.50
2023-04-02T06:19:21.486Z,89.80
2023-04-02T06:21:53.689Z,88.30
2023-04-02T06:24:26.645Z,87.80
2023-04-02T06:26:58.911Z,88.00
2023-04-02T06:29:34.012Z,87.80
2023-04-02T06:32:02.977Z,89.00
2023-04-02T06:34:32.878Z,88.20
2023-04-02T06:37:05.576Z,88.00
2023-04-02T06:39:33.452Z,88.20
2023-04-02T06:42:04.269Z,88.10
2023-04-02T06:44:34.990Z,88.70
2023-04-02T06:47:08.245Z,88.10
2023-04-02T06:49:43.142Z,87.90
2023-04-02T06:52:19.288Z,87.80
2023-04-02T06:54:48.049Z,87.90
2023-04-02T06:57:16.207Z,87.90
2023-04-02T06:59:44.591Z,88.00
2023-04-02T07:02:28.577Z,88.30
2023-04-02T07:05:03.033Z,88.60
2023-04-02T07:07:32.766Z,88.10
2023-04-02T07:10:00.741Z,88.00
2023-04-02T07:12:28.702Z,87.60
2023-04-02T07:14:56.778Z,87.30
2023-04-02T07:17:24.623Z,87.20
2023-04-02T07:19:52.562Z,87.60
2023-04-02T07:22:21.228Z,87.50
2023-04-02T07:24:50.564Z,87.70
2023-04-02T07:27:18.380Z,87.80
2023-04-02T07:29:46.251Z,87.90
2023-04-02T07:32:14.827Z,87.60
2023-04-02T07:34:43.197Z,87.90
2023-04-02T07:37:15.541Z,87.90
2023-04-02T07:39:43.396Z,87.90
2023-04-02T07:42:12.628Z,88.40
2023-04-02T07:44:40.535Z,88.30
2023-04-02T07:47:09.090Z,88.40
2023-04-02T07:49:37.211Z,88.20
2023-04-02T07:52:06.804Z,88.30
2023-04-02T07:54:35.700Z,89.00
2023-04-02T07:57:04.219Z,88.00
2023-04-02T07:59:33.807Z,88.10
2023-04-02T08:02:02.587Z,88.30
2023-04-02T08:04:31.126Z,88.30
2023-04-02T08:06:58.996Z,88.40
2023-04-02T08:09:27.023Z,88.30
2023-04-02T08:11:54.994Z,88.10
2023-04-02T08:14:22.911Z,87.70
2023-04-02T08:16:53.901Z,88.50
2023-04-02T08:19:21.984Z,88.30
2023-04-02T08:21:51.930Z,88.20
2023-04-02T08:24:20.367Z,87.90
2023-04-02T08:26:49.617Z,87.80
2023-04-02T08:29:17.743Z,88.00
2023-04-02T08:31:45.546Z,88.10
2023-04-02T08:34:15.324Z,88.80
2023-04-02T08:36:45.455Z,88.40
2023-04-02T08:39:14.565Z,88.30
2023-04-02T08:41:48.079Z,87.90
2023-04-02T08:44:37.955Z,87.80
2023-04-02T08:47:07.396Z,87.30
2023-04-02T08:49:41.377Z,87.50
2023-04-02T08:52:22.252Z,87.00
2023-04-02T08:54:50.648Z,86.80
2023-04-02T08:57:28.860Z,86.90
2023-04-02T09:00:01.463Z,86.50
2023-04-02T09:02:37.945Z,86.30
2023-04-02T09:05:16.190Z,86.60
2023-04-02T09:07:44.680Z,86.00
2023-04-02T09:10:16.395Z,85.30
2023-04-02T09:12:46.998Z,85.50
2023-04-02T09:15:23.494Z,85.30
2023-04-02T09:17:59.636Z,85.50
2023-04-02T09:20:29.816Z,86.00
2023-04-02T09:22:59.038Z,85.40
2023-04-02T09:25:29.949Z,85.00
2023-04-02T09:28:01.444Z,85.00
2023-04-02T09:30:44.648Z,84.80
2023-04-02T09:33:12.942Z,84.80
2023-04-02T09:35:57.783Z,85.50
2023-04-02T09:38:28.984Z,85.20
2023-04-02T09:41:01.306Z,84.20
2023-04-02T09:43:31.014Z,84.10
2023-04-02T09:46:01.809Z,84.40
2023-04-02T09:48:31.945Z,84.50
2023-04-02T09:51:16.319Z,84.70
2023-04-02T09:53:47.132Z,84.50
2023-04-02T09:56:18.653Z,84.10
2023-04-02T09:59:02.164Z,84.40
2023-04-02T10:01:33.136Z,84.30
2023-04-02T10:04:03.985Z,83.40
2023-04-02T10:06:35.170Z,83.10
2023-04-02T10:09:22.388Z,83.20
2023-04-02T10:11:52.068Z,81.90
2023-04-02T10:14:22.508Z,82.80
2023-04-02T10:16:53.455Z,81.90
2023-04-02T10:19:29.639Z,82.30
2023-04-02T10:22:01.906Z,81.80
2023-04-02T10:24:30.545Z,80.30
2023-04-02T10:27:09.471Z,80.80
2023-04-02T10:30:12.672Z,80.70
2023-04-02T10:32:45.417Z,80.40
2023-04-02T10:35:21.017Z,80.90
2023-04-02T10:38:18.862Z,80.40
2023-04-02T10:40:50.193Z,79.70
2023-04-02T10:43:49.996Z,80.10
2023-04-02T10:46:25.561Z,79.70
2023-04-02T10:49:04.032Z,79.80
2023-04-02T10:51:40.189Z,77.90
2023-04-02T10:54:27.798Z,78.90
2023-04-02T10:57:09.961Z,78.00
2023-04-02T10:59:43.958Z,77.70
2023-04-02T11:02:33.948Z,77.10
2023-04-02T11:05:11.340Z,75.40
2023-04-02T11:07:53.184Z,74.90
2023-04-02T11:10:23.633Z,74.70
2023-04-02T11:12:57.679Z,75.50
2023-04-02T11:15:26.349Z,73.80
2023-04-02T11:17:54.716Z,75.10
2023-04-02T11:21:05.936Z,74.20
2023-04-02T11:23:40.743Z,75.20
2023-04-02T11:26:42.402Z,73.80
2023-04-02T11:29:26.484Z,73.80
2023-04-02T11:32:30.039Z,74.20
2023-04-02T11:35:30.958Z,75.00
2023-04-02T11:38:00.439Z,75.40
2023-04-02T11:40:47.833Z,75.90
2023-04-02T11:44:00.618Z,74.10
2023-04-02T11:46:48.998Z,73.30
2023-04-02T11:49:57.143Z,73.70
2023-04-02T11:52:29.013Z,71.80
2023-04-02T11:55:22.235Z,72.20
2023-04-02T11:58:08.310Z,72.20
2023-04-02T12:01:11.726Z,72.20
2023-04-02T12:04:13.978Z,71.30
2023-04-02T12:06:59.860Z,70.40
2023-04-02T12:09:28.947Z,70.70
2023-04-02T12:11:59.439Z,72.10
2023-04-02T12:14:42.901Z,70.70
2023-04-02T12:17:22.539Z,70.60
2023-04-02T12:19:53.109Z,69.60
2023-04-02T12:22:23.842Z,69.70
2023-04-02T12:24:53.673Z,68.80
2023-04-02T12:27:27.571Z,70.60
2023-04-02T12:30:13.900Z,70.90
2023-04-02T12:32:43.687Z,68.30
2023-04-02T12:35:29.744Z,67.50
2023-04-02T12:37:58.183Z,67.10
2023-04-02T12:40:27.199Z,68.30
2023-04-02T12:42:55.487Z,67.50
2023-04-02T12:45:26.610Z,66.80
2023-04-02T12:47:58.818Z,66.20
2023-04-02T12:50:26.985Z,66.30
2023-04-02T12:52:58.759Z,66.60
2023-04-02T12:55:28.378Z,65.20
2023-04-02T12:57:57.740Z,65.30
2023-04-02T13:00:34.879Z,67.30
2023-04-02T13:03:18.185Z,66.20
2023-04-02T13:05:50.281Z,63.60
2023-04-02T13:08:20.055Z,64.80
2023-04-02T13:10:54.337Z,66.10
2023-04-02T13:13:30.813Z,65.50
2023-04-02T13:16:07.484Z,66.50
2023-04-02T13:18:38.824Z,64.00
2023-04-02T13:21:07.659Z,66.30
2023-04-02T13:23:37.943Z,66.30
2023-04-02T13:26:16.840Z,65.60
2023-04-02T13:28:45.422Z,64.10
2023-04-02T13:31:17.724Z,65.70
2023-04-02T13:33:47.092Z,66.10
2023-04-02T13:36:15.656Z,64.80
2023-04-02T13:38:44.085Z,65.10
2023-04-02T13:41:21.392Z,65.60
2023-04-02T13:43:49.900Z,65.40
2023-04-02T13:46:22.201Z,66.50
2023-04-02T13:48:52.686Z,65.80
2023-04-02T13:51:23.673Z,64.50
2023-04-02T13:53:54.518Z,65.60
2023-04-02T13:56:23.256Z,65.00
2023-04-02T13:58:51.296Z,65.70
2023-04-02T14:01:20.561Z,64.80
2023-04-02T14:03:48.748Z,63.20
2023-04-02T14:06:25.663Z,63.50
2023-04-02T14:09:04.438Z,62.90
2023-04-02T14:11:43.045Z,62.10
2023-04-02T14:14:30.855Z,61.30
2023-04-02T14:17:11.640Z,60.20
2023-04-02T14:19:50.988Z,61.50
2023-04-02T14:22:30.794Z,61.80
2023-04-02T14:25:07.905Z,60.60
2023-04-02T14:27:45.843Z,60.30
2023-04-02T14:30:21.317Z,60.60
2023-04-02T14:32:56.727Z,59.60
2023-04-02T14:35:32.093Z,61.00
2023-04-02T14:38:10.148Z,60.30
2023-04-02T14:40:46.242Z,60.00
2023-04-02T14:43:20.544Z,59.50
2023-04-02T14:45:58.081Z,57.80
2023-04-02T14:48:44.342Z,57.50
2023-04-02T14:51:18.361Z,55.30
2023-04-02T14:53:58.214Z,56.30
2023-04-02T14:56:26.905Z,55.50
2023-04-02T14:59:05.457Z,55.50
2023-04-02T15:01:38.599Z,56.00
2023-04-02T15:04:13.288Z,57.40
2023-04-02T15:06:45.701Z,55.50
2023-04-02T15:09:20.658Z,55.30
2023-04-02T15:11:52.463Z,55.80
2023-04-02T15:14:23.399Z,53.60
2023-04-02T15:16:51.449Z,54.40
2023-04-02T15:19:20.359Z,55.90
2023-04-02T15:22:09.685Z,54.70
2023-04-02T15:24:51.191Z,53.80
2023-04-02T15:27:51.222Z,54.70
2023-04-02T15:30:23.506Z,53.60
2023-04-02T15:32:53.716Z,52.80
2023-04-02T15:35:38.406Z,52.30
2023-04-02T15:38:13.131Z,53.50
2023-04-02T15:40:54.727Z,51.30
2023-04-02T15:43:28.578Z,52.90
2023-04-02T15:46:10.341Z,52.50
2023-04-02T15:48:53.101Z,52.50
2023-04-02T15:51:29.723Z,52.60
2023-04-02T15:54:10.255Z,52.70
2023-04-02T15:56:51.349Z,51.80
2023-04-02T15:59:49.416Z,51.40
2023-04-02T16:02:39.877Z,49.80
2023-04-02T16:05:16.042Z,48.60
2023-04-02T16:08:22.135Z,49.40
2023-04-02T16:10:49.927Z,49.00
2023-04-02T16:13:26.900Z,50.30
2023-04-02T16:16:00.375Z,50.00
2023-04-02T16:18:37.539Z,49.10
2023-04-02T16:21:06.499Z,49.10
2023-04-02T16:23:36.845Z,49.30
2023-04-02T16:26:26.046Z,47.60
2023-04-02T16:29:04.932Z,47.20
2023-04-02T16:31:42.125Z,46.20
2023-04-02T16:34:16.020Z,46.10
2023-04-02T16:36:50.584Z,45.70
2023-04-02T16:39:30.977Z,46.50
2023-04-02T16:42:08.452Z,46.10
2023-04-02T16:44:46.747Z,46.20
2023-04-02T16:47:31.198Z,46.40
2023-04-02T16:50:03.595Z,46.40
2023-04-02T16:52:47.878Z,47.80
2023-04-02T16:55:31.389Z,48.40
2023-04-02T16:58:15.090Z,48.40
2023-04-02T17:00:49.394Z,48.70
2023-04-02T17:03:36.081Z,49.10
2023-04-02T17:06:09.143Z,49.80
2023-04-02T17:08:42.892Z,50.20
2023-04-02T17:11:16.696Z,50.90
2023-04-02T17:13:47.871Z,51.40
2023-04-02T17:16:21.580Z,51.50
2023-04-02T17:18:52.246Z,51.80
2023-04-02T17:21:23.812Z,52.30
2023-04-02T17:23:56.785Z,52.10
2023-04-02T17:26:28.536Z,52.50
2023-04-02T17:28:59.025Z,53.20
2023-04-02T17:31:33.991Z,53.10
2023-04-02T17:34:10.550Z,53.50
2023-04-02T17:36:50.023Z,54.10
2023-04-02T17:39:25.398Z,53.60
2023-04-02T17:41:59.817Z,54.40
2023-04-02T17:44:45.241Z,54.60
2023-04-02T17:47:20.401Z,54.50
2023-04-02T17:49:55.321Z,54.80
2023-04-02T17:52:29.895Z,55.60
2023-04-02T17:55:07.334Z,54.80
2023-04-02T17:58:01.134Z,55.40
2023-04-02T18:00:42.220Z,55.50
2023-04-02T18:03:50.634Z,56.10
2023-04-02T18:06:22.450Z,56.20
2023-04-02T18:09:05.761Z,56.50
2023-04-02T18:11:44.830Z,56.50
2023-04-02T18:14:28.934Z,57.10
2023-04-02T18:17:02.882Z,57.40
2023-04-02T18:19:40.386Z,58.00
2023-04-02T18:22:16.757Z,58.00
2023-04-02T18:25:12.535Z,58.90
2023-04-02T18:27:56.955Z,58.10
2023-04-02T18:30:31.040Z,58.10
2023-04-02T18:33:25.389Z,58.40
2023-04-02T18:36:00.799Z,58.20
2023-04-02T18:38:38.031Z,58.30
2023-04-02T18:41:26.933Z,58.30
2023-04-02T18:44:07.624Z,58.60
2023-04-02T18:46:43.384Z,58.50
2023-04-02T18:49:24.750Z,58.50
2023-04-02T18:51:59.417Z,58.80
2023-04-02T18:54:33.089Z,58.90
2023-04-02T18:57:04.124Z,58.60
2023-04-02T18:59:40.013Z,58.70
2023-04-02T19:02:30.993Z,59.20
2023-04-02T19:05:03.802Z,59.30
2023-04-02T19:07:37.118Z,59.70
2023-04-02T19:10:15.035Z,59.70
2023-04-02T19:12:42.973Z,60.40
2023-04-02T19:15:17.435Z,60.00
2023-04-02T19:18:16.446Z,60.20
2023-04-02T19:20:52.485Z,60.00
2023-04-02T19:23:39.436Z,60.10
2023-04-02T19:26:09.649Z,60.00
2023-04-02T19:28:45.102Z,60.20
2023-04-02T19:31:27.542Z,60.10
2023-04-02T19:34:00.439Z,60.20
2023-04-02T19:36:45.787Z,60.40
2023-04-02T19:39:46.975Z,60.50
2023-04-02T19:42:23.147Z,60.20
2023-04-02T19:44:52.600Z,60.70
2023-04-02T19:47:21.585Z,60.90
2023-04-02T19:49:49.716Z,61.60
2023-04-02T19:52:18.084Z,60.50
2023-04-02T19:54:47.430Z,60.90
2023-04-02T19:57:17.207Z,60.40
2023-04-02T19:59:45.396Z,61.00
2023-04-02T20:02:13.305Z,60.50
2023-04-02T20:04:42.439Z,60.70
2023-04-02T20:07:10.781Z,61.10
2023-04-02T20:09:38.684Z,61.10
2023-04-02T20:12:08.078Z,61.20
2023-04-02T20:14:35.985Z,61.50
2023-04-02T20:17:03.893Z,61.40
2023-04-02T20:19:32.278Z,61.60
2023-04-02T20:22:00.174Z,61.40
2023-04-02T20:24:28.034Z,62.00
2023-04-02T20:26:56.123Z,62.10
2023-04-02T20:29:28.403Z,62.00
2023-04-02T20:31:56.408Z,62.10
2023-04-02T20:34:24.657Z,62.30
2023-04-02T20:36:53.630Z,62.10
2023-04-02T20:39:21.596Z,62.20
2023-04-02T20:41:49.591Z,62.30
2023-04-02T20:44:17.459Z,62.50
2023-04-02T20:46:46.834Z,63.10
2023-04-02T20:49:14.884Z,62.50
2023-04-02T20:51:43.242Z,62.90
2023-04-02T20:54:11.392Z,62.50
2023-04-02T20:56:39.655Z,62.50
2023-04-02T20:59:07.495Z,62.70
2023-04-02T21:01:35.397Z,63.20
2023-04-02T21:04:05.772Z,62.10
2023-04-02T21:06:35.726Z,62.50
2023-04-02T21:09:08.320Z,62.60
2023-04-02T21:11:37.435Z,62.90
2023-04-02T21:14:05.969Z,63.00
2023-04-02T21:16:33.962Z,62.70
2023-04-02T21:19:05.912Z,62.90
2023-04-02T21:21:35.510Z,63.40
2023-04-02T21:24:05.749Z,63.30
2023-04-02T21:26:35.563Z,63.30
2023-04-02T21:29:03.758Z,63.40
2023-04-02T21:31:35.180Z,64.00
2023-04-02T21:34:05.960Z,63.50
2023-04-02T21:36:35.860Z,63.50
2023-04-02T21:39:06.510Z,64.60
2023-04-02T21:41:36.004Z,64.60
2023-04-02T21:44:05.879Z,64.60
2023-04-02T21:46:37.203Z,64.50
2023-04-02T21:49:08.010Z,63.50
2023-04-02T21:51:38.454Z,64.50
2023-04-02T21:54:07.692Z,64.60
2023-04-02T21:56:37.323Z,64.80
2023-04-02T21:59:07.409Z,65.10
2023-04-02T22:01:36.828Z,64.50
2023-04-02T22:04:08.270Z,64.70
2023-04-02T22:06:40.121Z,64.50
2023-04-02T22:09:10.476Z,64.90
2023-04-02T22:11:41.462Z,64.60
2023-04-02T22:14:09.838Z,64.90
2023-04-02T22:16:38.291Z,64.70
2023-04-02T22:19:10.604Z,64.60
2023-04-02T22:21:39.710Z,64.60
2023-04-02T22:24:09.993Z,64.70
2023-04-02T22:26:38.742Z,65.00
2023-04-02T22:29:06.632Z,65.20
2023-04-02T22:31:35.202Z,65.10
2023-04-02T22:34:04.866Z,64.90
2023-04-02T22:36:35.046Z,65.90
2023-04-02T22:39:05.352Z,65.20
2023-04-02T22:41:33.626Z,65.10
2023-04-02T22:44:02.580Z,65.30
2023-04-02T22:46:31.693Z,65.30
2023-04-02T22:48:59.922Z,65.20
2023-04-02T22:51:28.694Z,65.30
2023-04-02T22:53:58.430Z,65.20
2023-04-02T22:56:31.648Z,65.40
2023-04-02T22:58:59.592Z,65.50
2023-04-02T23:01:30.533Z,66.00
2023-04-02T23:03:58.764Z,65.50
2023-04-02T23:06:27.198Z,65.60
2023-04-02T23:08:55.359Z,65.60
2023-04-02T23:11:27.144Z,65.40
2023-04-02T23:13:56.982Z,66.20
2023-04-02T23:16:27.062Z,65.60
2023-04-02T23:18:55.894Z,65.30
2023-04-02T23:21:24.354Z,65.70
2023-04-02T23:23:52.804Z,65.70
2023-04-02T23:26:22.897Z,66.00
2023-04-02T23:28:52.377Z,66.00
2023-04-02T23:31:22.280Z,65.50
2023-04-02T23:33:51.228Z,66.00
2023-04-02T23:36:22.413Z,66.00
2023-04-02T23:38:52.165Z,66.00
2023-04-02T23:41:19.998Z,66.00
2023-04-02T23:43:47.841Z,66.50
2023-04-02T23:46:17.070Z,65.90
2023-04-02T23:48:45.880Z,66.00
2023-04-02T23:51:14.540Z,66.10
2023-04-02T23:53:43.348Z,65.80
2023-04-02T23:56:11.590Z,66.00
2023-04-02T23:58:39.554Z,65.90
